• Join FlightAware (Why Join?)
  • Login
  • US Flag 
02:50PM EDT


 

Airport Tracker/Info


-or-


 

Live Flight TrackerFlight Track Log ✈ XOJ793 ✈ 13-Jul-2014 ✈ KAEJ - KSBA

Flight Track Log - Related Links

Times and Time Zones

All times are in EDT time to prevent confusion due to time zone crossing. See the XOJ793 flight status page for this flight to view local times or setup timezone preferences in your user account.

Time Position Orientation Groundspeed Altitude Reporting Facility
EDT Latitude Longitude Course Direction KTS MPH feet Rate Location/Type
02:33PM 38.4835 -105.0629 111° Southeast  Level FlightAware Approximate
02:34PM 38.4372 -104.9126 111° Southeast  Level FlightAware Approximate
02:34PM 38.6456 -106.0411 243° Southwest 270 311 14,900  Level Denver Center
02:35PM 38.3927 -104.7615 113° Southeast  Level FlightAware Approximate
02:35PM 38.5725 -105.9956 154° Southeast 293 337 16,800  Level Denver Center
02:36PM 38.3519 -104.6094 104° East  Level FlightAware Approximate
02:36PM 38.4928 -105.9161 142° Southeast 302 348 18,600  Level Denver Center
02:37PM 38.3035 -104.4606 113° Southeast  Level FlightAware Approximate
02:38PM 38.2471 -104.5166 245° Southwest  Level FlightAware Approximate
02:38PM 38.4161 -105.9567 203° Southwest 318 366 20,000  Level Denver Center
02:39PM 38.1894 -104.6595 243° Southwest  Level FlightAware Approximate
02:39PM 38.3336 -106.0356 217° Southwest 374 430 20,000  Level Denver Center
02:40PM 38.1311 -104.8022 243° Southwest  Level FlightAware Approximate
02:40PM 38.2356 -106.1036 209° Southwest 396 456 22,400  Level Denver Center
02:41PM 38.1267 -106.1806 209° Southwest 395 455 24,700 1,740 Climbing Denver Center
02:42PM 38.0811 -106.3189 247° West 403 464 26,000 600 Climbing Denver Center
02:43PM 38.0314 -106.4578 246° West 430 495 26,000 900 Level Denver Center
02:44PM 37.9794 -106.6036 246° West 449 517 27,900 1,500 Climbing Denver Center
02:45PM 37.9281 -106.7375 244° Southwest 448 516 29,200 1,380 Climbing Denver Center
02:46PM 37.8681 -106.9008 245° Southwest 454 522 30,800 1,440 Climbing Denver Center
02:47PM 37.8150 -107.0417 245° Southwest 460 529 32,200 1,320 Climbing Denver Center
02:48PM 37.7522 -107.2092 245° Southwest 470 541 33,600 1,320 Climbing Denver Center
02:49PM 37.6969 -107.3542 244° Southwest 476 548 35,000 1,740 Climbing Denver Center
02:50PM 37.6350 -107.5211 245° Southwest 475 547 37,200 1,740 Climbing Denver Center
02:51PM 37.5814 -107.6608 244° Southwest 469 540 38,600 1,500 Climbing Denver Center
02:52PM 37.5194 -107.8256 245° Southwest 468 539 40,300 1,380 Climbing Denver Center
02:53PM 37.4656 -107.9656 244° Southwest 462 532 41,500 1,200 Climbing Denver Center
02:54PM 37.4028 -108.1272 244° Southwest 462 532 42,800 720 Climbing Denver Center
02:55PM 37.3575 -108.2722 249° West 464 534 43,000 60 Climbing Denver Center
02:56PM 37.3111 -108.4536 252° West 482 555 43,000  Level Denver Center
02:57PM 37.2683 -108.6086 251° West 488 562 43,000  Level Denver Center
02:58PM 37.2172 -108.7928 251° West 497 572 43,000  Level Denver Center
02:59PM 37.1744 -108.9519 251° West 499 574 43,000  Level Denver Center
03:00PM 37.1219 -109.1386 251° West 507 583 43,000  Level Denver Center
03:01PM 37.0786 -109.2983 251° West 509 586 43,000  Level Denver Center
03:02PM 37.0256 -109.4836 250° West 509 586 43,000  Level Denver Center
03:03PM 36.9783 -109.6464 250° West 516 594 43,000  Level Denver Center
03:04PM 36.9275 -109.8283 251° West 506 582 43,000  Level Denver Center
03:05PM 36.8844 -109.9847 251° West 504 580 43,000  Level Denver Center
03:06PM 36.8344 -110.1589 250° West 504 580 43,000  Level Denver Center
03:08PM 36.7867 -110.3242 250° West 505 581 43,000  Level Denver Center
03:09PM 36.7364 -110.4903 249° West 508 585 43,000  Level Denver Center
03:10PM 36.6872 -110.6564 250° West 508 585 43,000  Level Denver Center
03:11PM 36.6286 -110.8539 250° West 508 585 43,000  Level Denver Center
03:12PM 36.5794 -111.0194 250° West 508 585 43,000  Level Denver Center
03:13PM 36.5306 -111.1853 250° West 508 585 43,000  Level Denver Center
03:14PM 36.4800 -111.3511 249° West 509 586 43,000  Level Denver Center
03:15PM 36.4294 -111.5164 249° West 510 587 43,000  Level Denver Center
03:16PM 36.3792 -111.6800 249° West 510 587 43,000  Level Denver Center
03:17PM 36.3200 -111.8753 249° West 507 583 43,000  Level Los Angeles Center
03:18PM 36.2703 -112.0397 249° West 507 583 43,000  Level Los Angeles Center
03:19PM 36.2189 -112.2047 249° West 508 585 43,000  Level Los Angeles Center
03:20PM 36.1664 -112.3694 248° West 510 587 43,000  Level Los Angeles Center
03:21PM 36.1153 -112.5322 249° West 510 587 43,000  Level Los Angeles Center
03:22PM 36.0533 -112.7292 249° West 510 587 43,000  Level Los Angeles Center
03:23PM 36.0022 -112.8936 249° West 510 587 43,000  Level Los Angeles Center
03:24PM 35.9536 -113.0464 249° West 511 588 43,000  Level Los Angeles Center
03:25PM 35.9028 -113.2069 249° West 510 587 43,000  Level Los Angeles Center
03:26PM 35.8406 -113.3983 248° West 509 586 43,000  Level Los Angeles Center
03:27PM 35.7892 -113.5569 248° West 503 579 43,000  Level Los Angeles Center
03:28PM 35.7411 -113.7044 248° West 504 580 43,000  Level Los Angeles Center
03:29PM 35.6858 -113.8750 248° West 504 580 43,000  Level Los Angeles Center
03:30PM 35.6322 -114.0339 247° West 504 580 43,000  Level Los Angeles Center
03:31PM 35.5694 -114.2247 248° West 504 580 43,000  Level Los Angeles Center
03:32PM 35.5178 -114.3756 247° West 502 578 43,000  Level Los Angeles Center
03:33PM 35.4656 -114.5342 248° West 502 578 43,000  Level Los Angeles Center
03:35PM 35.4108 -114.6947 247° West 504 580 43,000  Level Los Angeles Center
03:36PM 35.3456 -114.8864 247° West 505 581 43,000  Level Los Angeles Center
03:37PM 35.2906 -115.0461 247° West 505 581 43,000 -300 Level Los Angeles Center
03:38PM 35.2453 -115.2114 251° West 509 586 42,400 -600 Descending Los Angeles Center
03:39PM 35.2086 -115.3789 255° West 509 586 41,800 -600 Descending Los Angeles Center
03:40PM 35.1661 -115.5664 255° West 517 595 41,200 -660 Descending Los Angeles Center
03:41PM 35.1267 -115.7361 254° West 520 598 40,500 -600 Descending Los Angeles Center
03:42PM 35.0881 -115.9056 254° West 519 597 40,000 -240 Descending Los Angeles Center
03:43PM 35.0472 -116.0775 254° West 525 604 40,000  Level Los Angeles Center
03:44PM 35.0078 -116.2478 254° West 525 604 40,000  Level Los Angeles Center
03:45PM 34.9689 -116.4181 254° West 523 602 40,000 -480 Level Los Angeles Center
03:46PM 34.9203 -116.6208 254° West 522 601 39,100 -1,020 Descending Los Angeles Center
03:47PM 34.8794 -116.7911 254° West 522 601 38,000 -540 Descending Los Angeles Center
03:48PM 34.8372 -116.9625 253° West 524 603 38,000 -720 Level Los Angeles Center
03:49PM 34.7956 -117.1339 254° West 526 605 36,500 -1,680 Descending Los Angeles Center
03:50PM 34.7528 -117.3069 253° West 528 608 34,500 -2,040 Descending Los Angeles Center
03:51PM 34.7097 -117.4819 253° West 534 615 32,400 -1,260 Descending Los Angeles Center
03:52PM 34.6656 -117.6572 253° West 535 616 32,000 -780 Descending Los Angeles Center
03:53PM 34.6167 -117.8583 254° West 520 598 30,900 -2,040 Descending Los Angeles Center
03:54PM 34.5711 -118.0347 253° West 547 629 27,900 -2,880 Descending Los Angeles Center
03:55PM 34.5303 -118.2003 253° West 539 620 25,000 -1,920 Descending Los Angeles Center
03:56PM 34.4836 -118.3917 254° West 523 602 24,000 -480 Descending Los Angeles Center
03:57PM 34.4417 -118.5500 252° West 505 581 24,000  Level Los Angeles Center
03:58PM 34.4003 -118.7086 252° West 500 575 24,000 -480 Level Los Angeles Center
03:59PM 34.3622 -118.8661 254° West 492 566 23,100 -1,440 Descending Los Angeles Center
04:00PM 34.3453 -119.0375 263° West 515 593 21,100 -2,400 Descending Los Angeles Center
04:01PM 34.3339 -119.2006 265° West 482 555 18,600 -3,060 Descending Los Angeles Center
04:01PM 34.3306 -119.2275 261° West 473 544 17,900 -4,020 Descending Los Angeles Center
04:02PM 34.3222 -119.3569 266° West 389 448 13,800 -3,720 Descending Los Angeles Center
04:04PM 34.2881 -119.4683 250° West 354 407 10,300 -3,300 Descending Los Angeles Center
04:05PM 34.2514 -119.5717 247° West 303 349 7,100 -2,880 Descending Los Angeles Center
04:06PM 34.2753 -119.6500 290° West 270 311 4,500 -2,220 Descending Los Angeles Center
04:07PM 34.3283 -119.7083 318° Northwest 254 292 2,500 -1,320 Descending Los Angeles Center
04:08PM 34.3706 -119.7442 325° Northwest 212 244 1,800 -540 Descending Los Angeles Center
04:09PM 34.3981 -119.7747 317° Northwest 165 190 1,400 -600 Descending Los Angeles Center
04:10PM 34.4269 -119.8064 318° Northwest 143 165 700 -720 Descending Los Angeles Center
04:10PM 34.4297 -119.8044 30° Northeast 149 171 700 -360 Level Los Angeles Center
04:11PM 34.4461 -119.8492 294° West 141 162 300 -420 Descending Los Angeles Center
04:13PM 34.4262 -119.8415 180° South  Level Estimated